createdAt,value
2019-01-05T00:00:38.218Z,8.29
2019-01-05T00:01:18.582Z,8.28
2019-01-05T00:01:58.980Z,8.28
2019-01-05T00:02:39.610Z,8.25
2019-01-05T00:03:19.923Z,8.31
2019-01-05T00:04:00.358Z,8.22
2019-01-05T00:04:40.659Z,8.17
2019-01-05T00:05:21.113Z,8.18
2019-01-05T00:06:01.493Z,8.21
2019-01-05T00:06:41.914Z,8.12
2019-01-05T00:07:22.422Z,8.04
2019-01-05T00:08:02.935Z,8.04
2019-01-05T00:08:43.307Z,8
2019-01-05T00:09:23.690Z,8
2019-01-05T00:10:04.100Z,8
2019-01-05T00:10:44.569Z,8.1
2019-01-05T00:11:24.964Z,8.22
2019-01-05T00:12:05.395Z,8.21
2019-01-05T00:12:45.915Z,8.29
2019-01-05T00:13:26.230Z,8.25
2019-01-05T00:14:06.636Z,8.22
2019-01-05T00:14:47.076Z,8.09
2019-01-05T00:15:27.448Z,8.1
2019-01-05T00:16:07.886Z,8.06
2019-01-05T00:16:48.309Z,7.99
2019-01-05T00:17:28.756Z,8.09
2019-01-05T00:18:09.313Z,8.09
2019-01-05T00:18:50.054Z,8.09
2019-01-05T00:19:30.479Z,8.09
2019-01-05T00:20:10.778Z,8.06
2019-01-05T00:20:51.281Z,8.18
2019-01-05T00:21:34.089Z,8.24
2019-01-05T00:22:14.479Z,8.14
2019-01-05T00:22:54.867Z,8.2
2019-01-05T00:23:35.399Z,8.21
2019-01-05T00:24:15.698Z,8.17
2019-01-05T00:24:56.116Z,8.17
2019-01-05T00:25:36.627Z,8.25
2019-01-05T00:26:17.098Z,8.28
2019-01-05T00:26:57.327Z,8.34
2019-01-05T00:27:37.795Z,8.27
2019-01-05T00:28:18.143Z,8.39
2019-01-05T00:28:58.513Z,8.45
2019-01-05T00:29:38.915Z,8.46
2019-01-05T00:30:20.765Z,8.43
2019-01-05T00:31:01.161Z,8.43
2019-01-05T00:31:41.998Z,8.4
2019-01-05T00:32:22.182Z,8.43
2019-01-05T00:33:02.553Z,8.42
2019-01-05T00:33:43.051Z,8.42
2019-01-05T00:34:28.278Z,8.4
2019-01-05T00:35:08.586Z,8.28
2019-01-05T00:35:49.235Z,8.32
2019-01-05T00:36:29.787Z,8.22
2019-01-05T00:37:10.187Z,8.32
2019-01-05T00:37:50.607Z,8.32
2019-01-05T00:38:30.968Z,8.31
2019-01-05T00:39:11.385Z,8.2
2019-01-05T00:39:52.819Z,8.18
2019-01-05T00:40:33.158Z,8.17
2019-01-05T00:41:13.741Z,8.2
2019-01-05T00:41:54.073Z,8.13
2019-01-05T00:42:34.526Z,8.2
2019-01-05T00:43:14.973Z,8.06
2019-01-05T00:43:55.244Z,8.04
2019-01-05T00:44:35.635Z,8.17
2019-01-05T00:45:16.191Z,8.06
2019-01-05T00:45:56.910Z,8.07
2019-01-05T00:46:37.307Z,8.1
2019-01-05T00:47:17.636Z,8.14
2019-01-05T00:47:58.044Z,8.2
2019-01-05T00:48:38.457Z,8.21
2019-01-05T00:49:18.834Z,8.18
2019-01-05T00:49:59.193Z,8.24
2019-01-05T00:50:39.604Z,8.13
2019-01-05T00:51:20.614Z,8.12
2019-01-05T00:52:01.351Z,8.03
2019-01-05T00:52:41.699Z,8.21
2019-01-05T00:53:22.064Z,8.28
2019-01-05T00:54:02.930Z,8.25
2019-01-05T00:54:43.406Z,8.2
2019-01-05T00:55:23.797Z,8.24
2019-01-05T00:56:04.191Z,8.28
2019-01-05T00:56:44.617Z,8.27
2019-01-05T00:57:25.153Z,8.31
2019-01-05T00:58:05.461Z,8.31
2019-01-05T00:58:45.854Z,8.28
2019-01-05T00:59:26.294Z,8.28
2019-01-05T01:00:08.178Z,8.32
2019-01-05T01:00:48.588Z,8.34
2019-01-05T01:01:28.997Z,8.25
2019-01-05T01:02:09.465Z,8.28
2019-01-05T01:02:49.907Z,8.32
2019-01-05T01:03:30.882Z,8.37
2019-01-05T01:04:11.355Z,8.43
2019-01-05T01:04:51.685Z,8.42
2019-01-05T01:05:32.096Z,8.49
2019-01-05T01:06:12.491Z,8.45
2019-01-05T01:06:52.870Z,8.45
2019-01-05T01:07:33.506Z,8.46
2019-01-05T01:08:13.671Z,8.58
2019-01-05T01:08:54.218Z,8.58
2019-01-05T01:09:35.664Z,8.7
2019-01-05T01:10:15.895Z,8.64
2019-01-05T01:10:56.291Z,8.67
2019-01-05T01:11:36.703Z,8.55
2019-01-05T01:12:17.116Z,8.57
2019-01-05T01:12:57.532Z,8.55
2019-01-05T01:13:38.649Z,8.57
2019-01-05T01:14:19.507Z,8.55
2019-01-05T01:14:59.969Z,8.39
2019-01-05T01:15:40.319Z,8.32
2019-01-05T01:16:20.808Z,8.39
2019-01-05T01:17:01.967Z,8.43
2019-01-05T01:17:42.408Z,8.52
2019-01-05T01:18:22.917Z,8.63
2019-01-05T01:19:03.675Z,8.57
2019-01-05T01:19:44.087Z,8.61
2019-01-05T01:20:24.439Z,8.7
2019-01-05T01:21:04.831Z,8.64
2019-01-05T01:21:45.169Z,8.7
2019-01-05T01:22:25.650Z,8.71
2019-01-05T01:23:06.844Z,8.71
2019-01-05T01:23:47.367Z,8.75
2019-01-05T01:24:27.792Z,8.65
2019-01-05T01:25:08.130Z,8.63
2019-01-05T01:25:48.517Z,8.76
2019-01-05T01:26:28.946Z,8.73
2019-01-05T01:27:09.330Z,8.71
2019-01-05T01:27:49.650Z,8.67
2019-01-05T01:28:30.119Z,8.64
2019-01-05T01:29:10.530Z,8.6
2019-01-05T01:29:50.950Z,8.5
2019-01-05T01:30:31.317Z,8.47
2019-01-05T01:31:11.717Z,8.57
2019-01-05T01:31:52.029Z,8.54
2019-01-05T01:32:32.453Z,8.57
2019-01-05T01:33:12.894Z,8.47
2019-01-05T01:33:53.883Z,8.36
2019-01-05T01:34:34.241Z,8.47
2019-01-05T01:35:14.564Z,8.5
2019-01-05T01:35:54.956Z,8.43
2019-01-05T01:36:35.342Z,8.49
2019-01-05T01:37:15.800Z,8.36
2019-01-05T01:37:56.172Z,8.46
2019-01-05T01:38:36.628Z,8.52
2019-01-05T01:39:17.736Z,8.57
2019-01-05T01:39:58.223Z,8.5
2019-01-05T01:40:38.641Z,8.5
2019-01-05T01:41:19.011Z,8.4
2019-01-05T01:41:59.923Z,8.47
2019-01-05T01:42:40.471Z,8.36
2019-01-05T01:43:20.851Z,8.4
2019-01-05T01:44:01.244Z,8.49
2019-01-05T01:44:41.737Z,8.47
2019-01-05T01:45:22.086Z,8.58
2019-01-05T01:46:02.478Z,8.45
2019-01-05T01:46:42.862Z,8.5
2019-01-05T01:47:23.229Z,8.57
2019-01-05T01:48:03.646Z,8.55
2019-01-05T01:48:44.803Z,8.58
2019-01-05T01:49:25.272Z,8.57
2019-01-05T01:50:05.677Z,8.57
2019-01-05T01:50:46.078Z,8.54
2019-01-05T01:51:26.459Z,8.6
2019-01-05T01:52:06.847Z,8.55
2019-01-05T01:52:47.248Z,8.57
2019-01-05T01:53:27.576Z,8.52
2019-01-05T01:54:08.059Z,8.39
2019-01-05T01:54:49.546Z,8.37
2019-01-05T01:55:29.619Z,8.27
2019-01-05T01:56:10.115Z,8.36
2019-01-05T01:56:50.503Z,8.32
2019-01-05T01:57:30.893Z,8.39
2019-01-05T01:58:11.291Z,8.42
2019-01-05T01:58:51.703Z,8.42
2019-01-05T01:59:32.094Z,8.61
2019-01-05T02:00:13.471Z,8.63
2019-01-05T02:00:53.769Z,8.7
2019-01-05T02:01:34.031Z,8.67
2019-01-05T02:02:14.380Z,8.57
2019-01-05T02:02:54.773Z,8.67
2019-01-05T02:03:35.248Z,8.6
2019-01-05T02:04:16.197Z,8.64
2019-01-05T02:04:56.749Z,8.67
2019-01-05T02:05:37.115Z,8.65
2019-01-05T02:06:17.570Z,8.64
2019-01-05T02:06:57.942Z,8.49
2019-01-05T02:07:38.377Z,8.55
2019-01-05T02:08:18.881Z,8.61
2019-01-05T02:08:59.168Z,8.47
2019-01-05T02:09:39.558Z,8.47
2019-01-05T02:10:19.964Z,8.49
2019-01-05T02:11:00.314Z,8.54
2019-01-05T02:11:40.784Z,8.54
2019-01-05T02:12:21.159Z,8.64
2019-01-05T02:13:01.555Z,8.73
2019-01-05T02:13:41.965Z,8.71
2019-01-05T02:14:23.057Z,8.78
2019-01-05T02:15:03.437Z,8.76
2019-01-05T02:15:43.807Z,8.79
2019-01-05T02:16:24.282Z,8.75
2019-01-05T02:17:04.642Z,8.82
2019-01-05T02:17:45.034Z,8.7
2019-01-05T02:18:25.403Z,8.79
2019-01-05T02:19:05.814Z,8.67
2019-01-05T02:19:46.192Z,8.67
2019-01-05T02:20:26.591Z,8.61
2019-01-05T02:21:06.959Z,8.75
2019-01-05T02:21:47.414Z,8.73
2019-01-05T02:22:27.746Z,8.61
2019-01-05T02:23:08.197Z,8.65
2019-01-05T02:23:48.686Z,8.57
2019-01-05T02:24:29.151Z,8.61
2019-01-05T02:25:09.404Z,8.65
2019-01-05T02:25:49.758Z,8.76
2019-01-05T02:26:30.147Z,8.68
2019-01-05T02:27:10.568Z,8.64
2019-01-05T02:27:50.903Z,8.65
2019-01-05T02:28:31.325Z,8.64
2019-01-05T02:29:11.771Z,8.75
2019-01-05T02:29:52.281Z,8.68
2019-01-05T02:30:32.764Z,8.68
2019-01-05T02:31:13.014Z,8.67
2019-01-05T02:31:53.373Z,8.47
2019-01-05T02:32:33.777Z,8.52
2019-01-05T02:33:14.184Z,8.46
2019-01-05T02:33:56.487Z,8.42
2019-01-05T02:34:38.515Z,8.36
2019-01-05T02:35:18.784Z,8.39
2019-01-05T02:35:59.157Z,8.36
2019-01-05T02:36:39.537Z,8.37
2019-01-05T02:37:19.925Z,8.37
2019-01-05T02:38:00.352Z,8.4
2019-01-05T02:38:40.757Z,8.47
2019-01-05T02:39:21.647Z,8.5
2019-01-05T02:40:01.766Z,8.55
2019-01-05T02:40:42.163Z,8.52
2019-01-05T02:41:23.212Z,8.52
2019-01-05T02:42:03.695Z,8.63
2019-01-05T02:42:44.273Z,8.6
2019-01-05T02:43:24.687Z,8.55
2019-01-05T02:44:05.320Z,8.67
2019-01-05T02:44:45.515Z,8.65
2019-01-05T02:45:25.994Z,8.52
2019-01-05T02:46:06.553Z,8.47
2019-01-05T02:46:46.963Z,8.46
2019-01-05T02:47:27.358Z,8.37
2019-01-05T02:48:07.755Z,8.4
2019-01-05T02:48:48.255Z,8.32
2019-01-05T02:49:28.599Z,8.42
2019-01-05T02:50:09.025Z,8.4
2019-01-05T02:50:49.419Z,8.42
2019-01-05T02:51:29.917Z,8.42
2019-01-05T02:52:10.253Z,8.52
2019-01-05T02:52:50.717Z,8.46
2019-01-05T02:53:31.073Z,8.49
2019-01-05T02:54:11.474Z,8.45
2019-01-05T02:54:51.847Z,8.5
2019-01-05T02:55:32.308Z,8.5
2019-01-05T02:56:12.679Z,8.37
2019-01-05T02:56:53.091Z,8.31
2019-01-05T02:57:33.535Z,8.25
2019-01-05T02:58:13.835Z,8.29
2019-01-05T02:58:54.257Z,8.24
2019-01-05T02:59:34.624Z,8.28
2019-01-05T03:00:15.030Z,8.22
2019-01-05T03:00:55.429Z,8.29
2019-01-05T03:01:35.870Z,8.31
2019-01-05T03:02:16.300Z,8.31
2019-01-05T03:02:56.665Z,8.36
2019-01-05T03:03:37.019Z,8.34
2019-01-05T03:04:17.427Z,8.4
2019-01-05T03:04:57.734Z,8.37
2019-01-05T03:05:38.272Z,8.31
2019-01-05T03:06:18.636Z,8.34
2019-01-05T03:06:59.170Z,8.25
2019-01-05T03:07:39.800Z,8.18
2019-01-05T03:08:20.236Z,8.18
2019-01-05T03:09:00.589Z,8.24
2019-01-05T03:09:40.927Z,8.18
2019-01-05T03:10:21.356Z,8.21
2019-01-05T03:11:01.716Z,8.03
2019-01-05T03:11:42.132Z,8.07
2019-01-05T03:12:22.551Z,8.03
2019-01-05T03:13:02.951Z,7.95
2019-01-05T03:13:43.274Z,7.88
2019-01-05T03:14:23.670Z,8.02
2019-01-05T03:15:03.991Z,8.06
2019-01-05T03:15:44.558Z,8
2019-01-05T03:16:24.870Z,7.99
2019-01-05T03:17:05.343Z,8.04
2019-01-05T03:17:45.792Z,8.03
2019-01-05T03:18:26.353Z,8.07
2019-01-05T03:19:06.757Z,8.09
2019-01-05T03:19:47.206Z,8.14
2019-01-05T03:20:27.624Z,8.18
2019-01-05T03:21:07.935Z,8.12
2019-01-05T03:21:48.400Z,8.06
2019-01-05T03:22:28.890Z,8.17
2019-01-05T03:23:09.533Z,8.1
2019-01-05T03:23:49.683Z,8.14
2019-01-05T03:24:29.985Z,8.13
2019-01-05T03:25:10.346Z,8.12
2019-01-05T03:25:50.771Z,8.02
2019-01-05T03:26:31.410Z,8.1
2019-01-05T03:27:11.624Z,8.13
2019-01-05T03:27:52.155Z,8.14
2019-01-05T03:28:32.915Z,8.2
2019-01-05T03:29:13.437Z,8.28
2019-01-05T03:29:53.887Z,8.14
2019-01-05T03:30:34.392Z,8.22
2019-01-05T03:31:15.076Z,8.29
2019-01-05T03:31:55.245Z,8.31
2019-01-05T03:32:35.841Z,8.31
2019-01-05T03:33:16.256Z,8.24
2019-01-05T03:33:56.583Z,8.31
2019-01-05T03:34:37.010Z,8.29
2019-01-05T03:35:17.422Z,8.25
2019-01-05T03:35:57.830Z,8.28
2019-01-05T03:36:39.505Z,8.34
2019-01-05T03:37:20.300Z,8.31
2019-01-05T03:38:00.972Z,8.34
2019-01-05T03:38:41.284Z,8.34
2019-01-05T03:39:21.648Z,8.34
2019-01-05T03:40:02.241Z,8.31
2019-01-05T03:40:42.564Z,8.31
2019-01-05T03:41:22.797Z,8.28
2019-01-05T03:42:03.174Z,8.27
2019-01-05T03:42:43.502Z,8.27
2019-01-05T03:43:23.951Z,8.22
2019-01-05T03:44:04.337Z,8.24
2019-01-05T03:44:45.722Z,8.29
2019-01-05T03:45:26.154Z,8.34
2019-01-05T03:46:06.554Z,8.36
2019-01-05T03:46:46.958Z,8.4
2019-01-05T03:47:27.354Z,8.4
2019-01-05T03:48:07.727Z,8.43
2019-01-05T03:48:48.163Z,8.42
2019-01-05T03:49:28.485Z,8.42
2019-01-05T03:50:08.948Z,8.46
2019-01-05T03:50:49.296Z,8.39
2019-01-05T03:51:29.681Z,8.4
2019-01-05T03:52:10.071Z,8.36
2019-01-05T03:52:50.519Z,8.4
2019-01-05T03:53:30.939Z,8.39
2019-01-05T03:54:11.333Z,8.4
2019-01-05T03:54:51.751Z,8.39
2019-01-05T03:55:33.168Z,8.37
2019-01-05T03:56:13.611Z,8.37
2019-01-05T03:56:54.030Z,8.34
2019-01-05T03:57:34.349Z,8.4
2019-01-05T03:58:14.876Z,8.37
2019-01-05T03:58:55.371Z,8.37
2019-01-05T03:59:35.800Z,8.31
2019-01-05T04:00:16.515Z,8.4
2019-01-05T04:00:56.893Z,8.43
2019-01-05T04:01:37.212Z,8.42
2019-01-05T04:02:17.597Z,8.45
2019-01-05T04:02:58.052Z,8.54
2019-01-05T04:03:38.695Z,8.57
2019-01-05T04:04:19.021Z,8.54
2019-01-05T04:04:59.280Z,8.47
2019-01-05T04:05:39.809Z,8.49
2019-01-05T04:06:20.297Z,8.34
2019-01-05T04:07:00.644Z,8.4
2019-01-05T04:07:41.083Z,8.39
2019-01-05T04:08:21.438Z,8.18
2019-01-05T04:09:01.754Z,8.18
2019-01-05T04:09:42.140Z,8.17
2019-01-05T04:10:22.571Z,8.28
2019-01-05T04:11:02.951Z,8.18
2019-01-05T04:11:43.313Z,8.18
2019-01-05T04:12:23.846Z,8.22
2019-01-05T04:13:04.160Z,8.21
2019-01-05T04:13:44.607Z,8.18
2019-01-05T04:14:25.032Z,8.29
2019-01-05T04:15:07.011Z,8.36
2019-01-05T04:15:48.685Z,8.39
2019-01-05T04:16:29.284Z,8.42
2019-01-05T04:17:09.669Z,8.5
2019-01-05T04:17:50.925Z,8.42
2019-01-05T04:18:31.308Z,8.47
2019-01-05T04:19:11.794Z,8.42
2019-01-05T04:19:52.189Z,8.55
2019-01-05T04:20:32.604Z,8.37
2019-01-05T04:21:13.144Z,8.43
2019-01-05T04:21:53.529Z,8.29
2019-01-05T04:22:34.808Z,8.27
2019-01-05T04:23:15.171Z,8.32
2019-01-05T04:23:56.055Z,8.37
2019-01-05T04:24:36.123Z,8.39
2019-01-05T04:25:16.931Z,8.29
2019-01-05T04:25:57.244Z,8.25
2019-01-05T04:26:37.630Z,8.36
2019-01-05T04:27:18.126Z,8.32
2019-01-05T04:27:59.381Z,8.34
2019-01-05T04:28:40.089Z,8.29
2019-01-05T05:13:06.520Z,8.18
2019-01-05T05:13:47.279Z,8.27
2019-01-05T05:14:28.703Z,8.34
2019-01-05T05:15:10.811Z,8.37
2019-01-05T05:15:51.307Z,8.49
2019-01-05T05:16:31.752Z,8.47
2019-01-05T05:17:12.360Z,8.34
2019-01-05T05:17:57.359Z,8.37
2019-01-05T05:18:38.888Z,8.37
2019-01-05T05:19:19.072Z,8.36
2019-01-05T05:20:00.431Z,8.37
2019-01-05T05:20:40.808Z,8.52
2019-01-05T05:21:21.248Z,8.61
2019-01-05T05:22:02.588Z,8.71
2019-01-05T05:22:42.998Z,8.61
2019-01-05T05:23:24.347Z,8.63
2019-01-05T05:24:04.779Z,8.7
2019-01-05T05:24:45.107Z,8.65
2019-01-05T05:25:25.527Z,8.6
2019-01-05T05:26:05.955Z,8.55
2019-01-05T05:26:46.332Z,8.46
2019-01-05T05:27:26.788Z,8.52
2019-01-05T05:28:07.190Z,8.57
2019-01-05T05:28:48.526Z,8.55
2019-01-05T05:29:28.963Z,8.52
2019-01-05T05:30:11.790Z,8.54
2019-01-05T05:30:52.427Z,8.49
2019-01-05T05:31:32.806Z,8.45
2019-01-05T05:32:13.211Z,8.47
2019-01-05T05:32:53.592Z,8.45
2019-01-05T05:33:34.005Z,8.57
2019-01-05T05:34:16.289Z,8.54
2019-01-05T05:34:56.685Z,8.57
2019-01-05T05:35:38.913Z,8.7
2019-01-05T05:36:19.256Z,8.67
2019-01-05T05:37:00.530Z,8.57
2019-01-05T05:37:42.524Z,8.57
2019-01-05T05:38:22.886Z,8.47
2019-01-05T05:39:03.275Z,8.63
2019-01-05T05:39:43.674Z,8.47
2019-01-05T05:40:24.171Z,8.47
2019-01-05T05:41:04.445Z,8.6
2019-01-05T05:41:44.848Z,8.57
2019-01-05T05:42:25.246Z,8.6
2019-01-05T05:43:07.526Z,8.65
2019-01-05T05:43:48.100Z,8.7
2019-01-05T05:44:28.550Z,8.64
2019-01-05T05:45:11.997Z,8.7
2019-01-05T05:45:54.015Z,8.68
2019-01-05T05:46:34.410Z,8.76
2019-01-05T05:47:14.822Z,8.73
2019-01-05T05:47:55.212Z,8.67
2019-01-05T05:48:37.410Z,8.68
2019-01-05T05:49:19.598Z,8.67
2019-01-05T05:49:59.997Z,8.75
2019-01-05T05:50:40.416Z,8.71
2019-01-05T05:51:20.818Z,8.61
2019-01-05T05:52:02.215Z,8.75
2019-01-05T05:52:42.572Z,8.73
2019-01-05T05:53:22.947Z,8.82
2019-01-05T05:54:03.358Z,8.83
2019-01-05T05:54:43.850Z,8.85
2019-01-05T05:55:24.162Z,8.89
2019-01-05T05:56:04.564Z,8.88
2019-01-05T05:56:46.585Z,8.8
2019-01-05T05:57:27.047Z,8.86
2019-01-05T05:58:07.385Z,8.86
2019-01-05T05:58:49.956Z,8.86
2019-01-05T05:59:30.304Z,8.86
2019-01-05T06:00:12.378Z,8.91
2019-01-05T06:00:54.554Z,8.89
2019-01-05T06:01:34.989Z,8.76
2019-01-05T06:02:15.359Z,8.73
2019-01-05T06:02:55.753Z,8.78
2019-01-05T06:03:36.167Z,8.73
2019-01-05T06:04:16.634Z,8.71
2019-01-05T06:04:57.973Z,8.78
2019-01-05T06:05:38.368Z,8.78
2019-01-05T06:06:20.683Z,8.85
2019-01-05T06:07:02.800Z,8.85
2019-01-05T06:07:43.243Z,8.93
2019-01-05T06:08:23.554Z,8.78
2019-01-05T06:09:03.945Z,8.8
2019-01-05T06:09:44.336Z,8.73
2019-01-05T06:10:24.852Z,8.75
2019-01-05T06:11:05.308Z,8.7
2019-01-05T06:11:45.617Z,8.76
2019-01-05T06:12:25.995Z,8.8
2019-01-05T06:13:08.316Z,8.83
2019-01-05T06:13:48.712Z,8.93
2019-01-05T06:14:30.675Z,8.88
2019-01-05T06:15:11.469Z,8.93
2019-01-05T06:15:51.833Z,8.91
2019-01-05T06:16:32.232Z,8.94
2019-01-05T06:17:12.656Z,8.93
2019-01-05T06:17:53.064Z,8.94
2019-01-05T06:18:33.620Z,8.94
2019-01-05T06:19:13.866Z,8.89
2019-01-05T06:19:54.208Z,8.96
2019-01-05T06:20:34.602Z,8.93
2019-01-05T06:21:16.935Z,8.86
2019-01-05T06:21:57.342Z,8.86
2019-01-05T06:22:37.777Z,8.88
2019-01-05T06:23:18.174Z,8.86
2019-01-05T06:23:59.576Z,8.8
2019-01-05T06:24:39.937Z,8.76
2019-01-05T06:29:50.033Z,8.8
2019-01-05T06:30:30.249Z,8.61
2019-01-05T06:31:12.490Z,8.78
2019-01-05T06:31:53.822Z,8.76
2019-01-05T06:32:34.259Z,8.76
2019-01-05T06:33:14.749Z,8.73
2019-01-05T06:33:55.124Z,8.73
2019-01-05T06:34:36.463Z,8.67
2019-01-05T06:35:16.845Z,8.75
2019-01-05T06:35:57.230Z,8.79
2019-01-05T06:36:37.606Z,8.73
2019-01-05T06:37:18.028Z,8.79
2019-01-05T06:37:58.375Z,8.78
2019-01-05T06:38:38.762Z,8.76
2019-01-05T06:39:19.293Z,8.76
2019-01-05T06:39:59.680Z,8.75
2019-01-05T06:40:41.021Z,8.76
2019-01-05T06:41:21.391Z,8.85
2019-01-05T06:42:01.811Z,8.76
2019-01-05T06:42:42.232Z,8.71
2019-01-05T06:43:22.933Z,8.64
2019-01-05T06:44:03.113Z,8.76
2019-01-05T06:44:45.389Z,8.7
2019-01-05T06:51:35.267Z,8.88
2019-01-05T06:52:16.669Z,9.04
2019-01-05T06:52:57.061Z,9.12
2019-01-05T06:53:37.491Z,8.96
2019-01-05T06:54:17.905Z,9
2019-01-05T06:54:58.295Z,8.86
2019-01-05T06:55:40.212Z,8.85
2019-01-05T06:59:35.617Z,8.91
2019-01-05T07:00:21.140Z,8.98
2019-01-05T07:01:01.476Z,9.06
2019-01-05T07:01:42.826Z,8.98
2019-01-05T07:02:23.251Z,9.06
2019-01-05T07:03:09.327Z,8.94
2019-01-05T07:03:50.578Z,8.91
2019-01-05T07:10:42.339Z,9.01
2019-01-05T07:11:25.816Z,9.08
2019-01-05T07:12:06.218Z,9.1
2019-01-05T07:12:48.566Z,8.96
2019-01-05T07:13:28.926Z,9.03
2019-01-05T07:14:10.253Z,9.08
2019-01-05T07:14:52.498Z,8.97
2019-01-05T07:15:33.808Z,8.91
2019-01-05T07:16:14.205Z,9.08
2019-01-05T07:16:54.601Z,9.04
2019-01-05T07:17:36.673Z,9.15
2019-01-05T07:18:17.065Z,9.12
2019-01-05T07:18:57.453Z,9.17
2019-01-05T07:19:39.446Z,9.12
2019-01-05T07:20:21.644Z,9.12
2019-01-05T07:21:02.128Z,9.1
2019-01-05T07:21:42.544Z,9.08
2019-01-05T07:22:22.889Z,9.03
2019-01-05T07:23:06.952Z,8.94
2019-01-05T07:23:48.216Z,9.08
2019-01-05T07:24:28.656Z,9.12
2019-01-05T07:25:09.098Z,9.08
2019-01-05T07:25:49.641Z,9.08
2019-01-05T07:26:30.061Z,9.12
2019-01-05T07:27:11.361Z,9.04
2019-01-05T07:27:53.387Z,9.08
2019-01-05T07:28:33.959Z,9.08
2019-01-05T07:29:14.203Z,9.1
2019-01-05T07:29:59.317Z,9.13
2019-01-05T07:30:39.738Z,9.06
2019-01-05T07:31:20.093Z,9.12
2019-01-05T07:32:11.351Z,9.17
2019-01-05T07:32:52.485Z,9.19
2019-01-05T07:33:32.857Z,9.12
2019-01-05T07:34:13.582Z,9.19
2019-01-05T07:34:54.559Z,9.17
2019-01-05T07:35:34.923Z,9.2
2019-01-05T07:36:15.323Z,9.19
2019-01-05T07:36:57.318Z,9.17
2019-01-05T07:37:37.772Z,9.2
2019-01-05T07:38:18.112Z,9.17
2019-01-05T07:38:58.729Z,9.06
2019-01-05T07:39:40.858Z,9.1
2019-01-05T07:40:21.217Z,9.19
2019-01-05T07:41:01.852Z,9.34
2019-01-05T07:41:41.976Z,9.37
2019-01-05T07:42:24.333Z,9.42
2019-01-05T07:43:05.641Z,9.37
2019-01-05T07:43:48.071Z,9.44
2019-01-05T07:44:30.122Z,9.42
2019-01-05T07:45:10.368Z,9.4
2019-01-05T07:45:52.235Z,9.4
2019-01-05T07:46:32.635Z,9.34
2019-01-05T07:47:14.042Z,9.32
2019-01-05T07:47:54.434Z,9.38
2019-01-05T07:48:34.930Z,9.34
2019-01-05T07:49:16.854Z,9.27
2019-01-05T07:49:57.335Z,9.34
2019-01-05T07:50:39.314Z,9.34
2019-01-05T07:51:19.717Z,9.3
2019-01-05T07:52:04.819Z,9.37
2019-01-05T07:52:46.150Z,9.26
2019-01-05T07:53:26.554Z,9.38
2019-01-05T07:54:06.967Z,9.37
2019-01-05T07:54:47.390Z,9.27
2019-01-05T07:55:27.745Z,9.32
2019-01-05T07:56:08.206Z,9.32
2019-01-05T07:56:50.157Z,9.34
2019-01-05T07:57:30.543Z,9.34
2019-01-05T07:58:11.004Z,9.26
2019-01-05T07:58:51.313Z,9.31
2019-01-05T07:59:31.732Z,9.38
2019-01-05T08:00:12.120Z,9.38
2019-01-05T08:00:55.317Z,9.35
2019-01-05T08:01:35.701Z,9.38
2019-01-05T08:02:16.126Z,9.45
2019-01-05T08:02:56.470Z,9.32
2019-01-05T08:03:38.520Z,9.37
2019-01-05T08:04:19.869Z,9.31
2019-01-05T08:05:00.241Z,9.34
2019-01-05T08:05:41.699Z,9.3
2019-01-05T08:06:22.227Z,9.31
2019-01-05T08:07:03.647Z,9.38
2019-01-05T08:07:49.938Z,9.3
2019-01-05T08:08:30.257Z,9.32
2019-01-05T08:09:10.698Z,9.4
2019-01-05T08:09:51.127Z,9.42
2019-01-05T08:10:31.632Z,9.32
2019-01-05T08:11:11.966Z,9.37
2019-01-05T08:11:53.351Z,9.4
2019-01-05T08:12:33.686Z,9.4
2019-01-05T08:13:14.062Z,9.35
2019-01-05T08:13:57.495Z,9.4
2019-01-05T08:14:37.777Z,9.44
2019-01-05T08:15:18.157Z,9.56
2019-01-05T08:15:58.583Z,9.55
2019-01-05T08:16:40.030Z,9.55
2019-01-05T08:17:20.443Z,9.58
2019-01-05T08:18:00.866Z,9.59
2019-01-05T08:18:43.204Z,9.52
2019-01-05T08:19:23.525Z,9.52
2019-01-05T08:20:04.127Z,9.52
2019-01-05T08:20:46.603Z,9.56
2019-01-05T08:21:27.957Z,9.55
2019-01-05T08:22:10.002Z,9.53
2019-01-05T08:22:50.558Z,9.58
2019-01-05T08:23:30.912Z,9.59
2019-01-05T08:24:11.292Z,9.63
2019-01-05T08:24:51.822Z,9.7
2019-01-05T08:25:32.081Z,9.65
2019-01-05T08:26:14.396Z,9.63
2019-01-05T08:26:54.729Z,9.6
2019-01-05T08:27:35.099Z,9.63
2019-01-05T08:28:15.554Z,9.59
2019-01-05T08:29:00.589Z,9.73
2019-01-05T08:29:43.772Z,9.74
2019-01-05T08:30:24.165Z,9.7
2019-01-05T08:31:06.047Z,9.63
2019-01-05T08:31:48.268Z,9.71
2019-01-05T08:32:28.850Z,9.67
2019-01-05T08:33:09.158Z,9.78
2019-01-05T08:33:49.605Z,9.75
2019-01-05T08:34:30.097Z,9.78
2019-01-05T08:35:11.429Z,9.81
2019-01-05T08:35:54.656Z,9.81
2019-01-05T08:36:35.535Z,9.75
2019-01-05T08:37:26.818Z,9.86
2019-01-05T08:38:07.238Z,9.88
2019-01-05T08:38:48.506Z,9.81
2019-01-05T08:39:33.547Z,9.78
2019-01-05T08:40:13.933Z,9.8
2019-01-05T08:40:58.012Z,9.89
2019-01-05T08:41:38.672Z,9.74
2019-01-05T08:42:20.550Z,9.78
2019-01-05T08:43:00.957Z,9.86
2019-01-05T08:43:41.375Z,9.88
2019-01-05T08:44:21.768Z,9.81
2019-01-05T08:45:02.387Z,9.8
2019-01-05T08:45:42.881Z,9.92
2019-01-05T08:46:25.916Z,10.06
2019-01-05T08:47:06.268Z,9.98
2019-01-05T08:47:46.737Z,10.01
2019-01-05T08:48:27.056Z,10.01
2019-01-05T08:49:10.422Z,10.02
2019-01-05T08:49:52.572Z,10.07
2019-01-05T08:50:33.359Z,9.99
2019-01-05T08:51:13.907Z,10.06
2019-01-05T08:51:54.342Z,10.06
2019-01-05T08:52:34.872Z,10.01
2019-01-05T08:53:15.334Z,9.96
2019-01-05T08:53:56.010Z,10.01
2019-01-05T08:54:37.287Z,9.98
2019-01-05T08:55:17.676Z,9.98
2019-01-05T08:55:59.042Z,9.99
2019-01-05T08:56:39.554Z,10.02
2019-01-05T08:57:20.820Z,9.99
2019-01-05T08:58:02.201Z,9.98
2019-01-05T08:58:43.366Z,9.95
2019-01-05T08:59:23.785Z,9.93
2019-01-05T09:00:04.319Z,9.89
2019-01-05T09:00:44.726Z,9.99
2019-01-05T09:01:26.066Z,9.99
2019-01-05T09:02:07.982Z,9.96
2019-01-05T09:02:48.411Z,9.93
2019-01-05T09:03:28.871Z,10.02
2019-01-05T09:04:09.219Z,10.04
2019-01-05T09:04:49.964Z,10.09
2019-01-05T09:05:32.035Z,10.06
2019-01-05T09:06:12.368Z,10.06
2019-01-05T09:06:55.342Z,10.04
2019-01-05T09:07:35.821Z,10.09
2019-01-05T09:08:16.371Z,10.02
2019-01-05T09:08:56.845Z,9.99
2019-01-05T09:09:37.186Z,10.01
2019-01-05T09:10:17.632Z,10.11
2019-01-05T09:10:58.007Z,10.01
2019-01-05T09:11:39.143Z,10.02
2019-01-05T09:12:19.549Z,9.99
2019-01-05T09:12:59.954Z,9.95
2019-01-05T09:13:40.400Z,9.98
2019-01-05T09:14:20.742Z,10.02
2019-01-05T09:15:01.417Z,10.1
2019-01-05T09:15:42.466Z,10.01
2019-01-05T09:16:22.899Z,10.02
2019-01-05T09:17:03.339Z,9.98
2019-01-05T09:17:44.802Z,9.93
2019-01-05T09:18:26.268Z,9.78
2019-01-05T09:19:06.734Z,9.8
2019-01-05T09:19:48.360Z,9.77
2019-01-05T09:20:27.622Z,9.88
2019-01-05T09:21:08.219Z,9.92
2019-01-05T09:21:49.541Z,9.93
2019-01-05T09:22:29.932Z,9.91
2019-01-05T09:23:11.434Z,9.93
2019-01-05T09:23:53.929Z,9.93
2019-01-05T09:24:35.228Z,9.95
2019-01-05T09:25:16.652Z,9.99
2019-01-05T09:25:58.007Z,9.92
2019-01-05T09:26:38.570Z,9.98
2019-01-05T09:27:20.653Z,9.89
2019-01-05T09:27:59.438Z,9.96
2019-01-05T09:28:39.891Z,9.88
2019-01-05T09:29:20.276Z,9.86
2019-01-05T09:30:00.701Z,9.83
2019-01-05T09:30:42.841Z,9.88
2019-01-05T09:31:23.296Z,9.86
2019-01-05T09:32:04.286Z,9.89
2019-01-05T09:32:44.666Z,9.78
2019-01-05T09:33:25.145Z,9.86
2019-01-05T09:34:05.521Z,9.91
2019-01-05T09:34:45.952Z,9.95
2019-01-05T09:35:26.325Z,9.92
2019-01-05T09:37:25.992Z,9.78
2019-01-05T09:38:08.661Z,9.85
2019-01-05T09:38:49.053Z,9.92
2019-01-05T09:39:29.661Z,9.99
2019-01-05T09:40:11.881Z,9.92
2019-01-05T09:40:52.428Z,9.99
2019-01-05T09:41:32.656Z,10.02
2019-01-05T09:42:13.997Z,10.04
2019-01-05T09:42:54.477Z,10.04
2019-01-05T09:43:35.610Z,9.93
2019-01-05T09:44:15.945Z,9.92
2019-01-05T09:44:57.364Z,9.88
2019-01-05T09:45:39.365Z,9.92
2019-01-05T09:46:19.777Z,9.95
2019-01-05T09:47:00.232Z,9.92
2019-01-05T09:47:42.466Z,9.83
2019-01-05T09:48:23.002Z,9.89
2019-01-05T09:49:03.507Z,9.91
2019-01-05T09:49:44.299Z,9.95
2019-01-05T09:50:25.275Z,9.99
2019-01-05T09:51:05.700Z,10.02
2019-01-05T09:51:47.178Z,9.93
2019-01-05T09:52:27.622Z,9.92
2019-01-05T09:53:08.019Z,9.95
2019-01-05T09:53:48.400Z,9.96
2019-01-05T09:54:29.211Z,9.91
2019-01-05T09:55:09.585Z,9.99
2019-01-05T09:55:49.968Z,10.02
2019-01-05T09:56:30.343Z,9.91
2019-01-05T09:57:10.817Z,9.86
2019-01-05T09:57:51.157Z,9.96
2019-01-05T09:58:31.704Z,9.88
2019-01-05T09:59:11.913Z,9.86
2019-01-05T09:59:52.452Z,9.83
2019-01-05T10:00:32.991Z,9.89
2019-01-05T10:01:15.406Z,9.86
2019-01-05T10:01:56.821Z,9.8
2019-01-05T10:02:37.280Z,9.92
2019-01-05T10:03:17.593Z,9.83
2019-01-05T10:03:58.969Z,9.81
2019-01-05T10:04:39.383Z,9.91
2019-01-05T10:05:19.926Z,9.91
2019-01-05T10:06:00.156Z,9.85
2019-01-05T10:06:40.573Z,9.8
2019-01-05T10:07:20.987Z,9.88
2019-01-05T10:08:01.354Z,9.86
2019-01-05T10:08:41.818Z,9.98
2019-01-05T10:09:23.302Z,9.93